Time;durP1;ratioP1;P1;durP2;ratioP2;P2;SDS_P1;SDS_P2;PMS_P1;PMS_P2;Temp;Humidity;BMP_temperature;BMP_pressure;BME280_temperature;BME280_humidity;BME280_pressure;Samples;Min_cycle;Max_cycle;Signal;HPM_P1;HPM_P2
2022/05/13 00:01:33;;;;;;;3.53;1.38;;;;;;;11.57;56.85;100267.59;4991667;28;20123;-49
2022/05/13 00:04:00;;;;;;;1.80;0.85;;;;;;;11.59;57.86;100280.56;5007840;28;20049;-47
2022/05/13 00:06:27;;;;;;;2.22;0.90;;;;;;;11.56;57.80;100274.50;5007124;28;20050;-54
2022/05/13 00:08:54;;;;;;;4.38;0.93;;;;;;;11.57;58.06;100263.28;5007582;28;20050;-45
2022/05/13 00:11:20;;;;;;;1.40;1.30;;;;;;;11.59;57.97;100265.88;5008106;28;20489;-46
2022/05/13 00:13:47;;;;;;;1.15;0.52;;;;;;;11.57;58.00;100260.69;5007114;28;20482;-49
2022/05/13 00:16:14;;;;;;;3.25;0.95;;;;;;;11.60;58.30;100270.19;5007522;28;20111;-49
2022/05/13 00:18:41;;;;;;;4.57;1.58;;;;;;;11.60;58.49;100264.13;5006686;28;20439;-49
2022/05/13 00:21:10;;;;;;;6.47;0.95;;;;;;;11.58;58.54;100264.13;5006327;28;20050;-45
2022/05/13 00:23:38;;;;;;;3.78;1.23;;;;;;;11.57;57.89;100260.69;5005462;28;22407;-46
2022/05/13 00:26:06;;;;;;;3.90;1.13;;;;;;;11.54;58.52;100255.50;5007356;28;20104;-44
2022/05/13 00:28:34;;;;;;;5.95;1.02;;;;;;;11.50;58.00;100264.16;5004080;28;20121;-45
2022/05/13 00:31:04;;;;;;;5.57;0.90;;;;;;;11.47;59.14;100258.97;5006489;28;20103;-51
2022/05/13 00:33:33;;;;;;;4.00;0.60;;;;;;;11.44;58.60;100256.41;5011204;28;20063;-50
2022/05/13 00:36:01;;;;;;;2.90;1.17;;;;;;;11.40;58.86;100249.50;5009098;28;20073;-56
2022/05/13 00:38:29;;;;;;;2.00;0.98;;;;;;;11.38;58.74;100246.91;5008787;28;20070;-48
2022/05/13 00:40:57;;;;;;;2.15;0.80;;;;;;;11.33;58.91;100238.28;5008717;28;20049;-47
2022/05/13 00:43:47;;;;;;;2.70;0.82;;;;;;;11.25;60.18;100237.44;5005828;28;20042;-51
2022/05/13 00:46:13;;;;;;;2.80;0.60;;;;;;;11.28;58.46;100229.66;5011145;28;20115;-56
2022/05/13 00:48:40;;;;;;;3.60;1.95;;;;;;;11.26;59.89;100237.44;5008249;28;20397;-49
2022/05/13 00:51:10;;;;;;;3.45;1.42;;;;;;;11.25;58.78;100235.69;5012604;28;20054;-48
2022/05/13 00:53:37;;;;;;;2.85;0.90;;;;;;;11.22;59.24;100235.72;5007637;28;20603;-46
2022/05/13 00:56:04;;;;;;;8.23;1.75;;;;;;;11.20;58.82;100242.63;5012806;28;20449;-52
2022/05/13 00:58:33;;;;;;;1.67;1.35;;;;;;;11.18;59.17;100236.59;5009897;28;20387;-46
2022/05/13 01:01:00;;;;;;;4.88;1.00;;;;;;;11.14;60.17;100237.44;5037751;28;20054;-49
2022/05/13 01:03:26;;;;;;;5.57;1.00;;;;;;;11.14;58.95;100233.13;5008496;28;20038;-44
2022/05/13 01:05:57;;;;;;;2.70;0.73;;;;;;;11.13;59.20;100225.34;5015012;28;20050;-48
2022/05/13 01:08:24;;;;;;;3.38;1.02;;;;;;;11.11;59.12;100232.28;5010823;28;20100;-51
2022/05/13 01:10:54;;;;;;;2.80;0.73;;;;;;;11.07;59.96;100235.75;5011300;28;20049;-50
2022/05/13 01:13:23;;;;;;;5.32;1.17;;;;;;;11.05;59.74;100222.81;5010692;28;20103;-46
2022/05/13 01:15:51;;;;;;;2.17;0.85;;;;;;;11.02;59.48;100228.81;5010420;28;20052;-52
2022/05/13 01:18:33;;;;;;;2.20;0.60;;;;;;;10.97;60.42;100229.72;5014727;28;20099;-50
2022/05/13 01:21:03;;;;;;;6.50;1.10;;;;;;;10.95;60.18;100221.94;5011223;28;20050;-51
2022/05/13 01:23:40;;;;;;;2.92;0.98;;;;;;;10.92;60.50;100221.94;5007474;28;20046;-49
2022/05/13 01:26:12;;;;;;;6.82;0.88;;;;;;;10.90;60.30;100228.84;5012384;28;20108;-47
2022/05/13 01:28:42;;;;;;;3.28;1.35;;;;;;;10.88;61.03;100235.78;5004123;28;20936;-47
2022/05/13 01:31:12;;;;;;;6.32;0.68;;;;;;;10.86;60.79;100232.31;5012581;28;20123;-49
2022/05/13 01:33:40;;;;;;;1.58;0.70;;;;;;;10.83;60.32;100228.00;5014988;28;20077;-48
2022/05/13 01:36:09;;;;;;;3.10;0.95;;;;;;;10.82;60.79;100231.47;5009857;28;20049;-43
2022/05/13 01:38:37;;;;;;;2.58;0.80;;;;;;;10.78;61.57;100225.41;5007372;28;20875;-48
2022/05/13 01:41:07;;;;;;;2.10;0.85;;;;;;;10.73;61.51;100221.97;5012319;28;20046;-51
2022/05/13 01:43:36;;;;;;;1.75;1.02;;;;;;;10.70;61.07;100229.72;5008523;28;20054;-50
2022/05/13 01:46:04;;;;;;;3.35;1.02;;;;;;;10.69;61.41;100228.00;5008418;28;20580;-49
2022/05/13 01:48:31;;;;;;;4.10;1.02;;;;;;;10.65;61.14;100224.56;5013537;28;20043;-45
2022/05/13 01:50:57;;;;;;;3.10;0.85;;;;;;;10.63;61.29;100239.22;5012180;28;20053;-47
2022/05/13 01:53:24;;;;;;;4.38;0.85;;;;;;;10.59;61.39;100245.28;5012969;28;20049;-51
2022/05/13 01:55:51;;;;;;;2.53;0.82;;;;;;;10.60;61.37;100241.81;5012568;28;20099;-49
2022/05/13 01:58:20;;;;;;;5.40;0.82;;;;;;;10.59;61.49;100242.69;5010065;28;20081;-50
2022/05/13 02:00:48;;;;;;;3.65;0.85;;;;;;;10.59;61.21;100249.59;5011306;28;20053;-50
2022/05/13 02:06:03;;;;;;;2.78;0.70;;;;;;;10.51;61.48;100234.06;5007332;28;20042;-45
2022/05/13 02:08:31;;;;;;;3.13;0.75;;;;;;;10.47;62.13;100235.75;5011712;28;20566;-44
2022/05/13 02:10:57;;;;;;;3.20;1.02;;;;;;;10.47;61.98;100240.09;5007317;28;21684;-51
2022/05/13 02:16:11;;;;;;;5.22;0.98;;;;;;;10.44;61.77;100246.13;5008956;28;20119;-44
2022/05/13 02:18:38;;;;;;;4.00;1.08;;;;;;;10.43;61.34;100244.38;5008806;28;20046;-52
2022/05/13 02:21:06;;;;;;;6.20;1.60;;;;;;;10.41;62.05;100236.59;5012052;28;20107;-47
2022/05/13 02:23:33;;;;;;;6.28;1.35;;;;;;;10.39;62.10;100242.63;5010162;28;20049;-45
2022/05/13 02:26:03;;;;;;;2.10;1.13;;;;;;;10.36;62.55;100245.22;5005867;28;20544;-43
2022/05/13 02:28:30;;;;;;;4.82;1.42;;;;;;;10.31;62.77;100244.34;5010871;28;20099;-52
2022/05/13 02:30:59;;;;;;;2.97;0.85;;;;;;;10.30;62.57;100248.66;5008856;28;20042;-49
2022/05/13 02:33:28;;;;;;;6.43;1.35;;;;;;;10.28;62.65;100246.09;5008901;28;20071;-47
2022/05/13 02:35:56;;;;;;;5.32;0.85;;;;;;;10.26;62.96;100252.97;5010916;28;20049;-47
2022/05/13 02:38:23;;;;;;;2.33;1.00;;;;;;;10.25;62.83;100256.44;5012224;28;20057;-49
2022/05/13 02:43:36;;;;;;;4.45;0.88;;;;;;;10.18;63.47;100244.34;5009512;28;20049;-48
2022/05/13 02:46:03;;;;;;;4.70;0.93;;;;;;;10.17;63.43;100250.38;5006623;28;20046;-53
2022/05/13 02:48:47;;;;;;;3.95;1.20;;;;;;;10.15;63.36;100242.63;5012197;28;20053;-45
2022/05/13 02:51:15;;;;;;;3.30;1.10;;;;;;;10.12;63.56;100245.19;5007526;28;20062;-51
2022/05/13 02:53:42;;;;;;;3.88;0.90;;;;;;;10.10;64.18;100240.88;5012671;28;20124;-44
2022/05/13 02:56:10;;;;;;;2.33;0.80;;;;;;;10.10;63.62;100246.06;5008209;28;20045;-52
2022/05/13 02:58:37;;;;;;;4.18;1.20;;;;;;;10.09;63.99;100232.22;5008861;28;20952;-44
2022/05/13 03:01:05;;;;;;;5.07;1.13;;;;;;;10.08;64.06;100227.06;5011655;28;20107;-48
2022/05/13 03:03:34;;;;;;;4.38;1.17;;;;;;;10.07;63.76;100240.84;5009687;28;20100;-53
2022/05/13 03:06:00;;;;;;;4.72;1.40;;;;;;;10.03;64.39;100235.66;5008983;28;20104;-49
2022/05/13 03:08:27;;;;;;;4.03;0.93;;;;;;;10.05;64.38;100234.81;5012568;28;20050;-51
2022/05/13 03:10:53;;;;;;;4.30;1.08;;;;;;;10.01;64.63;100229.66;5009650;28;20089;-52
2022/05/13 03:13:20;;;;;;;4.03;1.25;;;;;;;10.02;64.10;100226.19;5006244;28;20057;-50
2022/05/13 03:15:48;;;;;;;6.60;1.65;;;;;;;10.02;63.93;100233.94;5013028;28;20457;-46
2022/05/13 03:18:14;;;;;;;5.20;1.58;;;;;;;10.01;64.42;100241.72;5010383;28;20065;-46
2022/05/13 03:20:41;;;;;;;9.27;1.63;;;;;;;10.01;63.96;100252.94;5007917;28;20096;-49
2022/05/13 03:23:08;;;;;;;3.60;1.05;;;;;;;9.99;64.25;100244.28;5007360;28;20520;-47
2022/05/13 03:25:34;;;;;;;3.75;0.98;;;;;;;9.99;64.50;100248.59;5008404;28;20058;-50
2022/05/13 03:28:01;;;;;;;6.07;1.40;;;;;;;10.00;64.17;100250.34;5012095;28;20462;-46
2022/05/13 03:30:28;;;;;;;2.42;1.00;;;;;;;10.00;64.34;100246.00;5011021;28;20050;-50
2022/05/13 03:32:55;;;;;;;2.72;0.98;;;;;;;9.98;63.91;100246.88;5009515;28;20045;-52
2022/05/13 03:35:22;;;;;;;6.95;1.27;;;;;;;9.97;64.42;100248.59;5010549;28;20077;-49
2022/05/13 03:37:49;;;;;;;2.90;1.00;;;;;;;9.95;64.80;100239.97;4992920;28;20101;-50
2022/05/13 03:40:17;;;;;;;5.63;1.15;;;;;;;9.93;64.26;100248.59;5011091;28;20552;-45
2022/05/13 03:42:44;;;;;;;3.83;1.10;;;;;;;9.92;64.71;100236.53;5010578;28;20053;-52
2022/05/13 03:45:13;;;;;;;6.47;1.27;;;;;;;9.87;64.53;100242.50;5005501;28;20109;-44
2022/05/13 03:47:40;;;;;;;8.43;1.63;;;;;;;9.83;64.99;100245.09;5008428;28;20045;-50
2022/05/13 03:50:07;;;;;;;4.72;1.48;;;;;;;9.82;64.86;100235.59;5010384;28;20069;-47
2022/05/13 03:52:35;;;;;;;4.28;1.63;;;;;;;9.82;64.67;100240.78;5008836;28;20038;-45
2022/05/13 03:55:03;;;;;;;4.45;1.25;;;;;;;9.80;64.96;100242.50;5006584;28;20058;-51
2022/05/13 03:57:31;;;;;;;5.13;1.08;;;;;;;9.80;64.78;100242.50;5005361;28;20058;-51
2022/05/13 03:59:58;;;;;;;5.32;1.17;;;;;;;9.77;65.10;100241.63;5005123;28;20046;-46
2022/05/13 04:02:25;;;;;;;5.43;1.08;;;;;;;9.74;64.75;100239.03;5010742;28;20058;-48
2022/05/13 04:10:25;;;;;;;6.68;1.33;;;;;;;9.69;65.16;100240.72;5006285;28;20049;-44
2022/05/13 04:18:24;;;;;;;2.72;1.23;;;;;;;9.66;65.32;100242.44;5008421;28;20104;-49
2022/05/13 04:20:51;;;;;;;5.55;1.13;;;;;;;9.64;65.51;100243.31;5003909;28;20123;-46
2022/05/13 04:23:18;;;;;;;5.22;1.10;;;;;;;9.65;65.95;100236.41;5006690;28;20049;-50
2022/05/13 04:25:46;;;;;;;8.02;2.00;;;;;;;9.63;65.68;100246.75;5007798;28;20045;-44
2022/05/13 04:28:13;;;;;;;4.47;1.25;;;;;;;9.64;65.16;100247.63;5006935;28;20042;-45
2022/05/13 04:30:40;;;;;;;4.80;1.20;;;;;;;9.65;64.97;100249.34;5008399;28;20488;-50
2022/05/13 04:33:11;;;;;;;6.43;1.45;;;;;;;9.64;65.18;100250.19;5006598;28;20552;-48
2022/05/13 04:35:37;;;;;;;6.15;1.20;;;;;;;9.64;65.38;100250.19;5008661;28;20100;-45
2022/05/13 04:38:04;;;;;;;4.88;0.90;;;;;;;9.65;64.94;100257.09;5005003;28;20762;-47
2022/05/13 04:40:31;;;;;;;5.47;1.40;;;;;;;9.64;65.20;100252.78;5009010;28;20057;-51
2022/05/13 04:42:57;;;;;;;6.53;1.90;;;;;;;9.66;65.56;100263.16;5007583;28;20054;-43
2022/05/13 04:45:27;;;;;;;8.73;1.15;;;;;;;9.66;64.83;100271.75;5008201;28;22213;-46
2022/05/13 04:50:48;;;;;;;;;;;;;;;9.54;66.43;100266.53;5015917;28;20081;-46
2022/05/13 04:53:19;;;;;;;4.65;1.52;;;;;;;9.64;64.98;100273.47;5006256;28;19922;-53
2022/05/13 04:55:46;;;;;;;5.50;1.10;;;;;;;9.66;64.82;100266.56;5009010;28;20042;-48
2022/05/13 04:58:12;;;;;;;6.30;1.58;;;;;;;9.69;65.37;100264.00;5004694;28;20552;-45
2022/05/13 05:00:42;;;;;;;7.13;1.55;;;;;;;9.72;65.67;100276.09;5005507;28;20058;-46
2022/05/13 05:03:28;;;;;;;4.97;2.53;;;;;;;9.74;64.59;100272.66;5010136;28;20589;-44
2022/05/13 05:05:57;;;;;;;7.15;1.35;;;;;;;9.79;65.17;100271.81;5000022;28;20089;-43
2022/05/13 05:08:25;;;;;;;4.53;1.13;;;;;;;9.81;65.11;100264.91;5006714;28;20124;-49
2022/05/13 05:10:51;;;;;;;7.50;1.30;;;;;;;9.87;65.49;100272.72;5010990;28;20077;-47
2022/05/13 05:13:22;;;;;;;5.07;1.25;;;;;;;9.87;65.31;100270.97;5010411;28;20116;-45
2022/05/13 05:15:49;;;;;;;7.60;1.15;;;;;;;9.91;64.67;100271.88;5008624;28;20042;-46
2022/05/13 05:18:16;;;;;;;3.38;2.00;;;;;;;9.95;65.00;100277.91;5010290;28;20424;-46
2022/05/13 05:20:44;;;;;;;5.82;1.65;;;;;;;10.01;64.96;100283.09;5003367;28;20777;-47
2022/05/13 05:23:18;;;;;;;6.07;1.80;;;;;;;10.06;64.94;100283.13;5008656;28;20650;-47
2022/05/13 05:25:46;;;;;;;5.95;1.00;;;;;;;10.11;64.55;100284.00;5007031;28;20104;-47
2022/05/13 05:28:13;;;;;;;6.05;0.90;;;;;;;10.13;64.76;100284.84;5007802;28;20050;-53
2022/05/13 05:30:42;;;;;;;8.20;1.83;;;;;;;10.19;64.69;100287.47;5006797;28;20046;-46
2022/05/13 05:33:09;;;;;;;2.83;1.02;;;;;;;10.24;64.62;100298.69;5008866;28;20057;-45
2022/05/13 05:35:36;;;;;;;4.43;1.38;;;;;;;10.29;64.36;100302.19;5003237;28;20057;-50
2022/05/13 05:38:03;;;;;;;4.07;1.20;;;;;;;10.36;64.74;100299.59;5006448;28;20041;-52
2022/05/13 05:40:31;;;;;;;4.57;0.98;;;;;;;10.40;64.63;100296.13;5009740;28;20095;-52
2022/05/13 05:43:04;;;;;;;5.88;1.02;;;;;;;10.43;65.19;100306.50;5010074;28;20046;-51
2022/05/13 05:45:31;;;;;;;9.82;1.33;;;;;;;10.52;64.66;100296.22;5008890;28;20065;-47
2022/05/13 05:47:58;;;;;;;4.82;0.90;;;;;;;10.59;64.46;100301.38;5018156;28;20058;-47
2022/05/13 05:50:25;;;;;;;5.35;1.23;;;;;;;10.64;64.80;100295.34;5012312;28;20053;-51
2022/05/13 05:52:52;;;;;;;7.78;1.15;;;;;;;10.72;64.34;100300.56;5013614;28;20500;-46
2022/05/13 05:58:09;;;;;;;3.83;1.10;;;;;;;10.90;63.79;100309.19;5009455;28;20100;-48
2022/05/13 06:00:41;;;;;;;4.38;1.27;;;;;;;10.98;64.65;100304.84;5003949;28;20092;-49
2022/05/13 06:03:08;;;;;;;4.95;1.10;;;;;;;11.05;63.61;100306.59;5006348;28;20057;-44
2022/05/13 06:05:36;;;;;;;5.35;1.38;;;;;;;11.18;64.18;100311.78;5009251;28;20050;-44
2022/05/13 06:08:04;;;;;;;5.95;1.40;;;;;;;11.29;63.52;100312.59;5008092;28;20049;-45
2022/05/13 06:10:32;;;;;;;4.25;1.00;;;;;;;11.40;63.82;100303.94;5005883;28;20112;-45
2022/05/13 06:12:59;;;;;;;6.47;1.23;;;;;;;11.50;63.51;100303.06;5007813;28;20046;-47
2022/05/13 06:15:25;;;;;;;5.03;0.90;;;;;;;11.61;63.10;100315.13;5008591;28;20053;-46
2022/05/13 06:17:54;;;;;;;5.65;1.05;;;;;;;11.69;63.89;100313.41;5005946;28;20116;-51
2022/05/13 06:20:24;;;;;;;4.15;1.38;;;;;;;11.77;62.94;100316.84;5006054;28;20066;-48
2022/05/13 06:22:51;;;;;;;5.47;1.20;;;;;;;11.82;62.39;100312.47;5003527;28;20053;-45
2022/05/13 06:25:20;;;;;;;3.60;0.98;;;;;;;11.90;63.21;100321.97;5004802;28;20054;-47
2022/05/13 06:27:48;;;;;;;5.25;2.13;;;;;;;11.94;62.62;100313.31;5001639;28;20054;-49
2022/05/13 06:30:20;;;;;;;5.13;1.40;;;;;;;12.00;62.68;100310.69;5006137;28;20792;-50
2022/05/13 06:32:46;;;;;;;7.63;1.05;;;;;;;12.06;62.18;100307.25;5007470;28;20053;-52
2022/05/13 06:35:13;;;;;;;5.70;1.60;;;;;;;12.12;62.34;100306.34;5007298;28;20433;-44
2022/05/13 06:37:40;;;;;;;3.38;1.20;;;;;;;12.24;62.74;100316.66;5009187;28;20054;-50
2022/05/13 06:40:07;;;;;;;8.45;1.30;;;;;;;12.35;61.94;100316.59;5008974;28;20058;-55
2022/05/13 06:42:35;;;;;;;7.50;1.58;;;;;;;12.41;60.85;100316.56;5004546;28;20042;-50
2022/05/13 06:45:01;;;;;;;7.40;1.30;;;;;;;12.52;61.57;100313.03;5006840;28;20128;-47
2022/05/13 06:47:28;;;;;;;6.15;1.52;;;;;;;12.71;62.30;100321.56;5008361;28;20049;-50
2022/05/13 06:49:54;;;;;;;6.85;1.45;;;;;;;12.89;61.29;100320.56;5003023;28;20058;-50
2022/05/13 06:52:21;;;;;;;7.65;1.25;;;;;;;13.07;61.72;100316.09;5006281;28;20054;-49
2022/05/13 06:55:06;;;;;;;3.97;1.20;;;;;;;13.21;61.23;100323.78;5003048;28;20054;-48
2022/05/13 06:57:33;;;;;;;7.95;1.73;;;;;;;13.23;60.60;100316.81;5000762;28;20116;-44
2022/05/13 06:59:59;;;;;;;3.42;1.25;;;;;;;13.27;60.33;100321.09;5005599;28;20049;-52
2022/05/13 07:02:27;;;;;;;4.47;1.13;;;;;;;13.27;59.37;100318.50;5002959;28;20089;-48
2022/05/13 07:04:54;;;;;;;14.18;1.45;;;;;;;13.25;59.45;100322.88;5007311;28;20057;-53
2022/05/13 07:07:20;;;;;;;5.55;1.10;;;;;;;13.28;59.40;100332.38;5003410;28;20065;-53
2022/05/13 07:09:47;;;;;;;6.30;1.10;;;;;;;13.31;58.78;100327.16;5006403;28;20447;-47
2022/05/13 07:12:13;;;;;;;8.55;1.75;;;;;;;13.36;59.13;100341.84;5007851;28;20054;-48
2022/05/13 07:14:40;;;;;;;5.95;1.52;;;;;;;13.39;58.56;100334.88;5005369;28;20213;-48
2022/05/13 07:17:07;;;;;;;6.82;1.40;;;;;;;13.40;58.57;100327.03;5005125;28;20049;-49
2022/05/13 07:19:34;;;;;;;6.70;1.25;;;;;;;13.45;59.31;100329.59;5003856;28;20052;-47
2022/05/13 07:22:01;;;;;;;8.25;1.05;;;;;;;13.64;59.02;100319.03;5000931;28;20104;-49
2022/05/13 07:24:28;;;;;;;3.25;1.00;;;;;;;13.82;58.59;100313.59;5005143;28;20053;-47
2022/05/13 07:26:55;;;;;;;7.65;1.77;;;;;;;14.03;58.33;100329.00;5002101;28;20337;-52
2022/05/13 07:29:22;;;;;;;9.52;2.55;;;;;;;14.11;58.16;100325.41;5002319;28;20101;-51
2022/05/13 07:31:49;;;;;;;7.22;1.35;;;;;;;14.21;57.76;100326.16;5008473;28;20647;-45
2022/05/13 07:34:16;;;;;;;9.07;1.73;;;;;;;14.38;57.14;100333.75;5003876;28;20459;-54
2022/05/13 07:36:42;;;;;;;10.20;2.38;;;;;;;14.48;57.03;100333.59;5004495;28;20565;-52
2022/05/13 07:41:55;;;;;;;7.05;1.02;;;;;;;14.95;56.36;100330.31;5004715;28;20053;-51
2022/05/13 07:44:22;;;;;;;5.95;0.88;;;;;;;15.21;56.09;100331.63;5009111;28;20053;-49
2022/05/13 07:46:49;;;;;;;5.82;1.35;;;;;;;15.64;56.11;100341.28;5004621;28;20092;-53
2022/05/13 07:49:15;;;;;;;3.80;1.27;;;;;;;16.01;55.56;100342.31;5006910;28;20054;-55
2022/05/13 07:51:42;;;;;;;6.53;1.30;;;;;;;16.35;54.38;100339.88;4998070;28;20120;-51
2022/05/13 07:54:09;;;;;;;7.97;1.60;;;;;;;16.67;53.16;100347.00;5005418;28;20054;-55
2022/05/13 07:56:36;;;;;;;6.18;1.33;;;;;;;16.94;53.62;100343.75;5004505;28;20057;-46
2022/05/13 07:59:02;;;;;;;7.20;1.10;;;;;;;17.12;52.65;100342.47;5007173;28;20049;-52
2022/05/13 08:01:30;;;;;;;4.53;0.88;;;;;;;17.32;51.57;100349.81;5006973;28;20054;-55
2022/05/13 08:03:58;;;;;;;4.80;1.38;;;;;;;17.55;51.83;100360.56;5006495;28;20049;-51
2022/05/13 08:06:25;;;;;;;5.57;1.00;;;;;;;17.68;51.04;100359.34;4999599;28;20072;-50
2022/05/13 08:08:56;;;;;;;4.43;0.80;;;;;;;17.67;50.58;100370.69;5002688;28;20123;-48
2022/05/13 08:11:24;;;;;;;8.25;1.02;;;;;;;17.63;49.72;100363.84;4985715;28;20064;-53
2022/05/13 08:13:51;;;;;;;10.80;1.13;;;;;;;17.65;49.64;100372.53;4994805;28;20053;-53
2022/05/13 08:16:21;;;;;;;5.93;1.20;;;;;;;17.78;48.72;100377.41;4999895;28;20046;-56
2022/05/13 08:18:49;;;;;;;5.00;1.30;;;;;;;17.83;48.60;100365.91;5002875;28;20057;-49
2022/05/13 08:21:15;;;;;;;5.97;1.30;;;;;;;17.92;49.25;100375.28;5003184;28;20062;-47
2022/05/13 08:23:43;;;;;;;7.70;1.45;;;;;;;17.93;48.01;100382.22;5001936;28;20490;-50
2022/05/13 08:26:11;;;;;;;8.15;1.55;;;;;;;17.73;48.35;100373.16;5033008;28;20111;-47
2022/05/13 08:28:39;;;;;;;5.05;0.90;;;;;;;17.64;48.77;100376.06;5000950;28;20045;-50
2022/05/13 08:31:07;;;;;;;9.57;1.27;;;;;;;17.60;47.96;100380.50;5006290;28;20050;-53
2022/05/13 08:33:34;;;;;;;3.65;1.33;;;;;;;17.58;48.75;100376.19;5004845;28;20046;-52
2022/05/13 08:36:04;;;;;;;6.93;1.10;;;;;;;17.64;48.09;100378.66;5002609;28;20058;-46
2022/05/13 08:38:33;;;;;;;6.32;1.20;;;;;;;17.69;48.60;100383.75;4999337;28;20116;-55
2022/05/13 08:43:49;;;;;;;5.47;1.15;;;;;;;17.95;46.60;100385.69;5001218;28;20756;-48
2022/05/13 08:49:00;;;;;;;6.95;1.45;;;;;;;17.96;45.34;100397.88;5033399;27;20403;-48
2022/05/13 08:54:15;;;;;;;6.10;0.93;;;;;;;17.92;45.97;100388.38;5032921;28;20404;-54
2022/05/13 08:56:49;;;;;;;6.05;1.05;;;;;;;18.13;46.34;100393.09;4984676;28;20050;-52
2022/05/13 09:02:01;;;;;;;8.55;0.80;;;;;;;18.57;45.98;100392.66;5027848;27;20406;-53
2022/05/13 09:04:49;;;;;;;3.05;1.02;;;;;;;18.57;45.60;100383.03;5015887;28;20050;-50
2022/05/13 09:07:19;;;;;;;7.45;1.35;;;;;;;18.71;45.20;100385.22;5015747;28;20057;-51
2022/05/13 09:09:51;;;;;;;5.05;1.25;;;;;;;18.93;44.75;100368.81;5017169;28;20159;-50
2022/05/13 09:12:27;;;;;;;5.43;1.00;;;;;;;19.04;44.50;100364.97;5009044;28;20056;-48
2022/05/13 09:15:16;;;;;;;4.05;1.63;;;;;;;19.11;44.32;100377.00;5013561;28;20053;-49
2022/05/13 09:18:00;;;;;;;8.13;1.67;;;;;;;19.45;44.68;100364.50;5010670;28;20054;-54
2022/05/13 09:20:46;;;;;;;5.38;0.88;;;;;;;19.70;43.97;100361.88;5008849;28;20405;-50
2022/05/13 09:23:14;;;;;;;8.07;1.42;;;;;;;19.90;43.99;100350.59;5016203;28;20061;-53
2022/05/13 09:28:30;;;;;;;8.95;1.90;;;;;;;20.55;43.08;100359.63;5005903;27;20402;-51
2022/05/13 09:33:51;;;;;;;5.60;1.00;;;;;;;20.94;42.53;100371.28;5020170;28;20403;-51
2022/05/13 09:38:58;;;;;;;7.78;2.53;;;;;;;20.99;41.15;100382.47;5032659;28;20397;-48
2022/05/13 09:41:31;;;;;;;5.78;2.53;;;;;;;21.00;42.44;100368.38;4989972;28;20055;-49
2022/05/13 09:46:44;;;;;;;6.00;1.02;;;;;;;21.20;41.25;100369.31;5011539;27;20403;-51
2022/05/13 09:49:33;;;;;;;10.15;1.67;;;;;;;21.39;41.17;100368.53;5001437;28;20072;-53
2022/05/13 09:52:11;;;;;;;6.82;1.67;;;;;;;21.46;40.50;100367.34;4996184;28;20051;-51
2022/05/13 09:54:40;;;;;;;4.90;1.05;;;;;;;21.61;40.82;100364.97;5001379;28;20037;-56
2022/05/13 09:59:53;;;;;;;7.60;1.15;;;;;;;21.67;40.79;100362.03;5036273;28;20407;-50
2022/05/13 10:05:15;;;;;;;4.38;1.05;;;;;;;22.01;39.54;100380.78;5046483;28;20401;-54
2022/05/13 10:08:05;;;;;;;5.32;0.98;;;;;;;22.16;39.89;100379.25;5014451;28;20101;-55
2022/05/13 10:16:20;;;;;;;9.27;0.90;;;;;;;22.09;39.62;100362.84;5042661;28;20049;-50
2022/05/13 10:18:56;;;;;;;5.82;1.45;;;;;;;22.14;38.63;100371.41;5018868;28;20577;-55
2022/05/13 10:21:29;;;;;;;6.43;0.98;;;;;;;22.14;38.32;100362.63;5025597;28;20045;-52
2022/05/13 10:24:04;;;;;;;5.82;1.63;;;;;;;21.99;39.04;100351.88;5057117;28;20041;-53
2022/05/13 10:26:36;;;;;;;6.30;1.02;;;;;;;21.92;38.75;100366.25;5020766;28;20143;-48
2022/05/13 10:29:16;;;;;;;4.40;1.10;;;;;;;21.87;39.49;100357.69;5017674;28;20092;-51
2022/05/13 10:31:45;;;;;;;3.95;1.50;;;;;;;21.78;39.76;100373.00;5017666;28;20494;-49
2022/05/13 10:34:42;;;;;;;4.88;1.05;;;;;;;21.68;39.01;100355.84;5013534;28;20144;-54
2022/05/13 10:39:52;;;;;;;7.68;2.00;;;;;;;21.73;39.80;100355.63;5025750;28;20407;-49
2022/05/13 10:42:32;;;;;;;2.45;1.88;;;;;;;21.95;39.53;100366.09;4981278;28;20487;-52
2022/05/13 10:50:18;;;;;;;8.30;1.02;;;;;;;22.33;39.55;100363.47;5028560;27;20417;-51
2022/05/13 10:53:11;;;;;;;8.23;1.20;;;;;;;22.42;38.82;100353.41;5019743;28;20108;-48
2022/05/13 10:58:43;;;;;;;5.78;2.72;;;;;;;22.68;37.96;100364.53;5043850;27;20405;-53
2022/05/13 11:20:48;;;;;;;7.65;1.23;;;;;;;22.31;36.89;100357.44;5024105;27;20428;-50
2022/05/13 11:37:13;;;;;;;5.55;1.98;;;;;;;22.59;37.45;100340.28;5043165;27;20398;-53
2022/05/13 11:39:52;;;;;;;6.47;1.48;;;;;;;22.54;38.15;100337.00;5027455;28;20111;-51
2022/05/13 11:46:13;;;;;;;6.18;1.58;;;;;;;22.68;38.05;100343.41;5016195;28;20052;-51
2022/05/13 11:48:44;;;;;;;4.82;1.40;;;;;;;22.74;37.82;100332.56;5032087;28;20046;-53
2022/05/13 11:53:50;;;;;;;7.30;2.45;;;;;;;22.87;37.90;100331.94;5061003;28;20383;-52
2022/05/13 11:56:31;;;;;;;5.45;2.30;;;;;;;22.91;37.57;100334.38;5014001;28;20058;-56
2022/05/13 11:59:03;;;;;;;5.20;1.58;;;;;;;22.87;37.23;100347.78;5015334;28;20468;-51
2022/05/13 12:12:37;;;;;;;7.30;1.80;;;;;;;22.73;37.63;100341.41;5038254;28;20751;-47
2022/05/13 12:18:11;;;;;;;5.70;1.35;;;;;;;23.11;38.23;100340.41;5039843;28;20880;-52
2022/05/13 12:21:06;;;;;;;8.27;1.60;;;;;;;23.28;38.03;100342.19;4985450;28;20050;-55
2022/05/13 12:26:12;;;;;;;6.50;1.65;;;;;;;23.11;37.16;100351.81;5004777;28;20407;-53
2022/05/13 12:53:39;;;;;;;2.78;1.30;;;;;;;22.58;37.08;100365.00;4999723;27;20411;-46
2022/05/13 12:59:11;;;;;;;8.98;1.80;;;;;;;22.55;36.97;100357.19;5016504;28;20411;-53
2022/05/13 13:02:01;;;;;;;4.70;1.40;;;;;;;22.55;37.68;100356.31;4984343;28;20451;-52
2022/05/13 13:04:32;;;;;;;6.60;2.78;;;;;;;22.55;37.88;100353.66;4984089;28;20110;-55
2022/05/13 13:07:10;;;;;;;6.90;1.92;;;;;;;22.39;36.80;100353.56;5015474;28;20529;-57
2022/05/13 13:09:42;;;;;;;8.23;1.70;;;;;;;22.31;37.87;100346.88;4994639;28;20050;-54
2022/05/13 13:14:56;;;;;;;5.90;2.15;;;;;;;22.41;38.15;100346.41;5058206;28;20412;-51
2022/05/13 13:17:44;;;;;;;8.02;1.88;;;;;;;22.50;38.70;100346.00;5037549;28;20054;-54
2022/05/13 13:20:15;;;;;;;5.22;1.65;;;;;;;22.66;38.26;100340.84;5032017;28;20049;-50
2022/05/13 13:22:44;;;;;;;6.07;2.05;;;;;;;22.73;37.75;100333.50;5032109;28;20065;-55
2022/05/13 13:25:21;;;;;;;;;;;;;;;22.61;37.56;100342.88;5035172;28;20091;-52
2022/05/13 13:27:48;;;;;;;6.30;1.55;;;;;;;22.79;37.85;100319.97;5031805;28;19957;-50
2022/05/13 13:30:17;;;;;;;5.32;1.85;;;;;;;22.87;37.40;100324.03;5053827;28;20551;-56
2022/05/13 13:32:47;;;;;;;8.05;1.83;;;;;;;22.90;37.71;100329.16;5038209;28;20494;-56
2022/05/13 13:35:15;;;;;;;4.97;1.40;;;;;;;22.91;37.82;100328.22;5032028;28;20132;-52
2022/05/13 13:37:41;;;;;;;7.82;2.05;;;;;;;22.95;38.18;100324.50;5023268;28;20563;-55
2022/05/13 13:40:19;;;;;;;7.78;2.00;;;;;;;22.97;37.67;100322.63;5036731;28;20416;-52
2022/05/13 13:42:46;;;;;;;7.80;1.88;;;;;;;23.07;37.98;100323.03;5037148;28;20042;-54
2022/05/13 13:45:17;;;;;;;3.97;1.27;;;;;;;23.04;37.07;100320.53;5026711;28;20111;-51
2022/05/13 13:47:47;;;;;;;8.13;1.88;;;;;;;23.07;37.37;100318.56;5045830;28;20045;-55
2022/05/13 13:50:21;;;;;;;7.45;1.63;;;;;;;23.03;36.95;100317.03;5034429;28;20045;-60
2022/05/13 13:52:50;;;;;;;6.10;1.45;;;;;;;22.88;37.60;100323.94;5021780;28;20053;-57
2022/05/13 13:55:38;;;;;;;8.25;1.88;;;;;;;22.78;36.80;100323.56;5034390;28;20049;-54
2022/05/13 14:01:23;;;;;;;7.45;2.20;;;;;;;22.76;37.45;100325.41;5041225;27;20895;-47
2022/05/13 14:04:08;;;;;;;6.80;3.45;;;;;;;22.76;36.24;100317.47;5018966;28;20086;-47
2022/05/13 14:06:37;;;;;;;7.60;2.85;;;;;;;22.81;36.98;100323.41;5013646;28;20060;-54
2022/05/13 14:09:04;;;;;;;7.75;2.35;;;;;;;22.91;37.11;100330.84;5020915;28;20054;-53
2022/05/13 14:11:36;;;;;;;7.70;3.30;;;;;;;22.99;37.83;100331.31;5021251;28;20100;-55
2022/05/13 14:14:23;;;;;;;10.30;2.83;;;;;;;23.03;37.62;100335.50;5004782;28;20097;-54
2022/05/13 14:16:57;;;;;;;6.07;2.47;;;;;;;23.03;37.13;100332.88;5006998;28;20116;-50
2022/05/13 14:19:27;;;;;;;8.80;2.63;;;;;;;23.08;37.23;100330.00;5016867;28;20559;-54
2022/05/13 14:22:01;;;;;;;6.60;2.50;;;;;;;23.07;37.18;100323.84;5014424;28;20092;-58